sensor_id;sensor_type;location;lat;lon;timestamp;P1;durP1;ratioP1;P2;durP2;ratioP2
62687;SDS011;48752;51.056;17.056;2022-11-20T00:01:54;72.03;;;28.95;;
62687;SDS011;48752;51.056;17.056;2022-11-20T00:04:25;71.68;;;29.95;;
62687;SDS011;48752;51.056;17.056;2022-11-20T00:06:50;76.75;;;28.95;;
62687;SDS011;48752;51.056;17.056;2022-11-20T00:09:16;73.65;;;29.33;;
62687;SDS011;48752;51.056;17.056;2022-11-20T00:11:53;70.82;;;28.30;;
62687;SDS011;48752;51.056;17.056;2022-11-20T00:14:23;89.00;;;34.63;;
62687;SDS011;48752;51.056;17.056;2022-11-20T00:16:50;86.40;;;32.95;;
62687;SDS011;48752;51.056;17.056;2022-11-20T00:19:16;75.38;;;31.92;;
62687;SDS011;48752;51.056;17.056;2022-11-20T00:21:42;85.55;;;30.83;;
62687;SDS011;48752;51.056;17.056;2022-11-20T00:24:09;75.22;;;28.85;;
62687;SDS011;48752;51.056;17.056;2022-11-20T00:26:36;68.57;;;27.60;;
62687;SDS011;48752;51.056;17.056;2022-11-20T00:29:01;65.20;;;25.85;;
62687;SDS011;48752;51.056;17.056;2022-11-20T00:33:57;68.22;;;26.58;;
62687;SDS011;48752;51.056;17.056;2022-11-20T00:36:35;60.15;;;24.23;;
62687;SDS011;48752;51.056;17.056;2022-11-20T00:39:16;67.45;;;28.90;;
62687;SDS011;48752;51.056;17.056;2022-11-20T00:41:42;74.80;;;28.35;;
62687;SDS011;48752;51.056;17.056;2022-11-20T00:44:07;66.45;;;25.48;;
62687;SDS011;48752;51.056;17.056;2022-11-20T00:46:32;71.97;;;26.08;;
62687;SDS011;48752;51.056;17.056;2022-11-20T00:48:58;64.93;;;26.50;;
62687;SDS011;48752;51.056;17.056;2022-11-20T00:51:24;63.30;;;25.02;;
62687;SDS011;48752;51.056;17.056;2022-11-20T00:53:50;68.75;;;27.25;;
62687;SDS011;48752;51.056;17.056;2022-11-20T00:56:17;72.70;;;28.92;;
62687;SDS011;48752;51.056;17.056;2022-11-20T00:58:44;78.65;;;32.15;;
62687;SDS011;48752;51.056;17.056;2022-11-20T01:01:12;69.32;;;27.02;;
62687;SDS011;48752;51.056;17.056;2022-11-20T01:03:45;65.25;;;25.42;;
62687;SDS011;48752;51.056;17.056;2022-11-20T01:08:40;71.60;;;25.90;;
62687;SDS011;48752;51.056;17.056;2022-11-20T01:11:07;70.90;;;26.38;;
62687;SDS011;48752;51.056;17.056;2022-11-20T01:13:34;61.45;;;24.65;;
62687;SDS011;48752;51.056;17.056;2022-11-20T01:16:06;69.68;;;26.77;;
62687;SDS011;48752;51.056;17.056;2022-11-20T01:18:34;69.30;;;27.30;;
62687;SDS011;48752;51.056;17.056;2022-11-20T01:21:08;68.20;;;25.25;;
62687;SDS011;48752;51.056;17.056;2022-11-20T01:23:35;64.75;;;26.95;;
62687;SDS011;48752;51.056;17.056;2022-11-20T01:26:06;60.35;;;25.58;;
62687;SDS011;48752;51.056;17.056;2022-11-20T01:30:59;62.90;;;23.75;;
62687;SDS011;48752;51.056;17.056;2022-11-20T01:33:25;77.72;;;27.35;;
62687;SDS011;48752;51.056;17.056;2022-11-20T01:35:51;72.53;;;27.77;;
62687;SDS011;48752;51.056;17.056;2022-11-20T01:38:17;69.97;;;25.60;;
62687;SDS011;48752;51.056;17.056;2022-11-20T01:40:42;55.85;;;22.02;;
62687;SDS011;48752;51.056;17.056;2022-11-20T01:43:14;55.13;;;23.15;;
62687;SDS011;48752;51.056;17.056;2022-11-20T01:45:50;59.67;;;21.65;;
62687;SDS011;48752;51.056;17.056;2022-11-20T01:48:21;55.38;;;23.55;;
62687;SDS011;48752;51.056;17.056;2022-11-20T01:50:47;54.08;;;22.70;;
62687;SDS011;48752;51.056;17.056;2022-11-20T01:53:14;55.70;;;21.65;;
62687;SDS011;48752;51.056;17.056;2022-11-20T01:55:43;56.42;;;22.88;;
62687;SDS011;48752;51.056;17.056;2022-11-20T01:58:14;56.20;;;21.85;;
62687;SDS011;48752;51.056;17.056;2022-11-20T02:00:40;58.45;;;22.60;;
62687;SDS011;48752;51.056;17.056;2022-11-20T02:03:07;53.45;;;22.00;;
62687;SDS011;48752;51.056;17.056;2022-11-20T02:08:03;60.40;;;22.95;;
62687;SDS011;48752;51.056;17.056;2022-11-20T02:10:30;56.88;;;23.25;;
62687;SDS011;48752;51.056;17.056;2022-11-20T02:12:56;48.05;;;21.75;;
62687;SDS011;48752;51.056;17.056;2022-11-20T02:15:40;48.00;;;19.85;;
62687;SDS011;48752;51.056;17.056;2022-11-20T02:18:05;55.35;;;21.35;;
62687;SDS011;48752;51.056;17.056;2022-11-20T02:20:31;49.67;;;20.27;;
62687;SDS011;48752;51.056;17.056;2022-11-20T02:22:57;55.40;;;20.77;;
62687;SDS011;48752;51.056;17.056;2022-11-20T02:25:26;52.20;;;21.77;;
62687;SDS011;48752;51.056;17.056;2022-11-20T02:27:52;46.80;;;20.48;;
62687;SDS011;48752;51.056;17.056;2022-11-20T02:30:18;46.67;;;19.55;;
62687;SDS011;48752;51.056;17.056;2022-11-20T02:32:43;55.22;;;20.63;;
62687;SDS011;48752;51.056;17.056;2022-11-20T02:35:54;50.13;;;20.13;;
62687;SDS011;48752;51.056;17.056;2022-11-20T02:37:55;47.83;;;21.45;;
62687;SDS011;48752;51.056;17.056;2022-11-20T02:40:22;54.72;;;21.58;;
62687;SDS011;48752;51.056;17.056;2022-11-20T02:42:51;51.85;;;21.85;;
62687;SDS011;48752;51.056;17.056;2022-11-20T02:45:17;55.05;;;21.55;;
62687;SDS011;48752;51.056;17.056;2022-11-20T02:47:42;43.22;;;19.95;;
62687;SDS011;48752;51.056;17.056;2022-11-20T02:50:07;46.03;;;21.17;;
62687;SDS011;48752;51.056;17.056;2022-11-20T02:52:33;54.55;;;22.25;;
62687;SDS011;48752;51.056;17.056;2022-11-20T02:54:58;48.92;;;20.77;;
62687;SDS011;48752;51.056;17.056;2022-11-20T02:57:24;51.35;;;21.23;;
62687;SDS011;48752;51.056;17.056;2022-11-20T02:59:49;58.55;;;21.88;;
62687;SDS011;48752;51.056;17.056;2022-11-20T03:02:14;50.15;;;19.80;;
62687;SDS011;48752;51.056;17.056;2022-11-20T03:04:40;47.13;;;20.15;;
62687;SDS011;48752;51.056;17.056;2022-11-20T03:07:05;49.20;;;20.10;;
62687;SDS011;48752;51.056;17.056;2022-11-20T03:09:30;45.92;;;19.85;;
62687;SDS011;48752;51.056;17.056;2022-11-20T03:11:56;46.40;;;20.63;;
62687;SDS011;48752;51.056;17.056;2022-11-20T03:14:21;61.28;;;21.50;;
62687;SDS011;48752;51.056;17.056;2022-11-20T03:16:46;50.40;;;21.08;;
62687;SDS011;48752;51.056;17.056;2022-11-20T03:19:12;51.67;;;21.15;;
62687;SDS011;48752;51.056;17.056;2022-11-20T03:21:38;43.72;;;19.63;;
62687;SDS011;48752;51.056;17.056;2022-11-20T03:24:04;42.80;;;19.23;;
62687;SDS011;48752;51.056;17.056;2022-11-20T03:26:29;43.97;;;18.92;;
62687;SDS011;48752;51.056;17.056;2022-11-20T03:28:56;46.15;;;20.77;;
62687;SDS011;48752;51.056;17.056;2022-11-20T03:31:24;45.78;;;18.58;;
62687;SDS011;48752;51.056;17.056;2022-11-20T03:34:00;41.45;;;18.27;;
62687;SDS011;48752;51.056;17.056;2022-11-20T03:36:26;51.30;;;20.45;;
62687;SDS011;48752;51.056;17.056;2022-11-20T03:38:52;54.05;;;21.13;;
62687;SDS011;48752;51.056;17.056;2022-11-20T03:41:20;42.25;;;19.92;;
62687;SDS011;48752;51.056;17.056;2022-11-20T03:43:51;49.53;;;20.77;;
62687;SDS011;48752;51.056;17.056;2022-11-20T03:46:17;42.17;;;19.48;;
62687;SDS011;48752;51.056;17.056;2022-11-20T03:48:42;40.35;;;19.00;;
62687;SDS011;48752;51.056;17.056;2022-11-20T03:53:38;46.25;;;20.55;;
62687;SDS011;48752;51.056;17.056;2022-11-20T03:56:04;46.00;;;19.90;;
62687;SDS011;48752;51.056;17.056;2022-11-20T03:58:30;49.13;;;21.20;;
62687;SDS011;48752;51.056;17.056;2022-11-20T04:00:56;53.15;;;22.30;;
62687;SDS011;48752;51.056;17.056;2022-11-20T04:03:21;60.47;;;23.05;;
62687;SDS011;48752;51.056;17.056;2022-11-20T04:05:46;60.75;;;25.40;;
62687;SDS011;48752;51.056;17.056;2022-11-20T04:08:12;57.67;;;25.30;;
62687;SDS011;48752;51.056;17.056;2022-11-20T04:10:37;65.85;;;28.50;;
62687;SDS011;48752;51.056;17.056;2022-11-20T04:13:02;70.10;;;29.38;;
62687;SDS011;48752;51.056;17.056;2022-11-20T04:15:28;73.10;;;29.90;;
62687;SDS011;48752;51.056;17.056;2022-11-20T04:17:53;60.88;;;26.27;;
62687;SDS011;48752;51.056;17.056;2022-11-20T04:20:19;67.07;;;30.05;;
62687;SDS011;48752;51.056;17.056;2022-11-20T04:22:45;74.53;;;28.90;;
62687;SDS011;48752;51.056;17.056;2022-11-20T04:25:10;71.57;;;27.42;;
62687;SDS011;48752;51.056;17.056;2022-11-20T04:27:36;58.13;;;24.33;;
62687;SDS011;48752;51.056;17.056;2022-11-20T04:30:01;67.32;;;26.55;;
62687;SDS011;48752;51.056;17.056;2022-11-20T04:32:26;69.38;;;25.92;;
62687;SDS011;48752;51.056;17.056;2022-11-20T04:34:53;62.70;;;28.75;;
62687;SDS011;48752;51.056;17.056;2022-11-20T04:37:19;65.43;;;27.13;;
62687;SDS011;48752;51.056;17.056;2022-11-20T04:39:45;66.10;;;29.33;;
62687;SDS011;48752;51.056;17.056;2022-11-20T04:42:10;94.22;;;36.83;;
62687;SDS011;48752;51.056;17.056;2022-11-20T04:44:54;77.80;;;30.52;;
62687;SDS011;48752;51.056;17.056;2022-11-20T04:47:20;112.32;;;48.35;;
62687;SDS011;48752;51.056;17.056;2022-11-20T04:49:45;93.63;;;41.75;;
62687;SDS011;48752;51.056;17.056;2022-11-20T04:52:11;102.38;;;46.33;;
62687;SDS011;48752;51.056;17.056;2022-11-20T04:54:36;96.47;;;41.08;;
62687;SDS011;48752;51.056;17.056;2022-11-20T04:57:02;96.20;;;37.13;;
62687;SDS011;48752;51.056;17.056;2022-11-20T04:59:27;76.82;;;31.67;;
62687;SDS011;48752;51.056;17.056;2022-11-20T05:01:53;76.43;;;33.80;;
62687;SDS011;48752;51.056;17.056;2022-11-20T05:04:18;78.68;;;33.30;;
62687;SDS011;48752;51.056;17.056;2022-11-20T05:06:43;92.63;;;35.65;;
62687;SDS011;48752;51.056;17.056;2022-11-20T05:09:12;97.53;;;36.35;;
62687;SDS011;48752;51.056;17.056;2022-11-20T05:11:38;105.43;;;38.15;;
62687;SDS011;48752;51.056;17.056;2022-11-20T05:14:04;95.40;;;35.28;;
62687;SDS011;48752;51.056;17.056;2022-11-20T05:16:33;80.93;;;29.52;;
62687;SDS011;48752;51.056;17.056;2022-11-20T05:19:00;72.10;;;31.15;;
62687;SDS011;48752;51.056;17.056;2022-11-20T05:21:26;78.85;;;30.42;;
62687;SDS011;48752;51.056;17.056;2022-11-20T05:23:52;73.47;;;29.83;;
62687;SDS011;48752;51.056;17.056;2022-11-20T05:26:19;77.65;;;29.05;;
62687;SDS011;48752;51.056;17.056;2022-11-20T05:28:50;71.38;;;27.42;;
62687;SDS011;48752;51.056;17.056;2022-11-20T05:31:17;75.72;;;28.15;;
62687;SDS011;48752;51.056;17.056;2022-11-20T05:33:48;70.15;;;27.38;;
62687;SDS011;48752;51.056;17.056;2022-11-20T05:36:13;68.25;;;26.92;;
62687;SDS011;48752;51.056;17.056;2022-11-20T05:38:40;64.93;;;26.65;;
62687;SDS011;48752;51.056;17.056;2022-11-20T05:41:15;78.35;;;29.13;;
62687;SDS011;48752;51.056;17.056;2022-11-20T05:43:49;67.93;;;26.95;;
62687;SDS011;48752;51.056;17.056;2022-11-20T05:46:23;64.80;;;28.38;;
62687;SDS011;48752;51.056;17.056;2022-11-20T05:48:49;68.13;;;29.05;;
62687;SDS011;48752;51.056;17.056;2022-11-20T05:51:16;71.93;;;28.83;;
62687;SDS011;48752;51.056;17.056;2022-11-20T05:53:43;70.28;;;28.65;;
62687;SDS011;48752;51.056;17.056;2022-11-20T05:56:10;71.53;;;29.40;;
62687;SDS011;48752;51.056;17.056;2022-11-20T05:58:38;81.53;;;31.15;;
62687;SDS011;48752;51.056;17.056;2022-11-20T06:03:46;81.95;;;32.13;;
62687;SDS011;48752;51.056;17.056;2022-11-20T06:06:31;78.30;;;29.45;;
62687;SDS011;48752;51.056;17.056;2022-11-20T06:11:27;80.40;;;30.35;;
62687;SDS011;48752;51.056;17.056;2022-11-20T06:13:53;76.07;;;30.02;;
62687;SDS011;48752;51.056;17.056;2022-11-20T06:16:19;72.28;;;30.20;;
62687;SDS011;48752;51.056;17.056;2022-11-20T06:18:46;64.85;;;27.92;;
62687;SDS011;48752;51.056;17.056;2022-11-20T06:21:12;79.95;;;30.17;;
62687;SDS011;48752;51.056;17.056;2022-11-20T06:23:42;72.78;;;29.02;;
62687;SDS011;48752;51.056;17.056;2022-11-20T06:26:15;73.50;;;29.88;;
62687;SDS011;48752;51.056;17.056;2022-11-20T06:28:49;69.25;;;28.80;;
62687;SDS011;48752;51.056;17.056;2022-11-20T06:31:18;67.47;;;30.65;;
62687;SDS011;48752;51.056;17.056;2022-11-20T06:33:46;70.18;;;30.02;;
62687;SDS011;48752;51.056;17.056;2022-11-20T06:36:19;73.63;;;29.70;;
62687;SDS011;48752;51.056;17.056;2022-11-20T06:38:46;78.35;;;31.05;;
62687;SDS011;48752;51.056;17.056;2022-11-20T06:41:14;77.05;;;29.90;;
62687;SDS011;48752;51.056;17.056;2022-11-20T06:43:41;75.90;;;28.67;;
62687;SDS011;48752;51.056;17.056;2022-11-20T06:46:08;78.25;;;28.75;;
62687;SDS011;48752;51.056;17.056;2022-11-20T06:48:35;67.88;;;28.10;;
62687;SDS011;48752;51.056;17.056;2022-11-20T06:51:05;77.45;;;33.22;;
62687;SDS011;48752;51.056;17.056;2022-11-20T06:53:32;84.10;;;31.08;;
62687;SDS011;48752;51.056;17.056;2022-11-20T06:55:58;93.10;;;36.40;;
62687;SDS011;48752;51.056;17.056;2022-11-20T06:58:26;78.25;;;30.42;;
62687;SDS011;48752;51.056;17.056;2022-11-20T07:00:53;89.05;;;33.88;;
62687;SDS011;48752;51.056;17.056;2022-11-20T07:03:26;82.15;;;32.25;;
62687;SDS011;48752;51.056;17.056;2022-11-20T07:05:53;74.47;;;30.63;;
62687;SDS011;48752;51.056;17.056;2022-11-20T07:08:20;81.60;;;30.98;;
62687;SDS011;48752;51.056;17.056;2022-11-20T07:10:46;89.03;;;34.95;;
62687;SDS011;48752;51.056;17.056;2022-11-20T07:13:11;80.72;;;32.22;;
62687;SDS011;48752;51.056;17.056;2022-11-20T07:15:37;81.82;;;33.47;;
62687;SDS011;48752;51.056;17.056;2022-11-20T07:18:03;76.18;;;30.35;;
62687;SDS011;48752;51.056;17.056;2022-11-20T07:20:30;77.43;;;31.02;;
62687;SDS011;48752;51.056;17.056;2022-11-20T07:22:56;75.00;;;31.15;;
62687;SDS011;48752;51.056;17.056;2022-11-20T07:25:23;83.25;;;31.05;;
62687;SDS011;48752;51.056;17.056;2022-11-20T07:27:50;74.25;;;29.15;;
62687;SDS011;48752;51.056;17.056;2022-11-20T07:30:15;82.00;;;32.15;;
62687;SDS011;48752;51.056;17.056;2022-11-20T07:32:42;68.65;;;28.30;;
62687;SDS011;48752;51.056;17.056;2022-11-20T07:35:13;74.57;;;31.08;;
62687;SDS011;48752;51.056;17.056;2022-11-20T07:37:39;74.78;;;30.10;;
62687;SDS011;48752;51.056;17.056;2022-11-20T07:40:05;83.95;;;32.88;;
62687;SDS011;48752;51.056;17.056;2022-11-20T07:42:30;64.80;;;27.40;;
62687;SDS011;48752;51.056;17.056;2022-11-20T07:44:57;75.78;;;30.75;;
62687;SDS011;48752;51.056;17.056;2022-11-20T07:47:24;64.50;;;26.73;;
62687;SDS011;48752;51.056;17.056;2022-11-20T07:49:50;63.78;;;27.40;;
62687;SDS011;48752;51.056;17.056;2022-11-20T07:52:17;69.15;;;26.48;;
62687;SDS011;48752;51.056;17.056;2022-11-20T07:54:42;71.13;;;29.38;;
62687;SDS011;48752;51.056;17.056;2022-11-20T07:57:08;66.90;;;28.67;;
62687;SDS011;48752;51.056;17.056;2022-11-20T07:59:35;67.47;;;27.33;;
62687;SDS011;48752;51.056;17.056;2022-11-20T08:02:01;61.95;;;26.63;;
62687;SDS011;48752;51.056;17.056;2022-11-20T08:04:27;66.93;;;28.02;;
62687;SDS011;48752;51.056;17.056;2022-11-20T08:06:53;62.90;;;27.70;;
62687;SDS011;48752;51.056;17.056;2022-11-20T08:09:18;55.13;;;24.00;;
62687;SDS011;48752;51.056;17.056;2022-11-20T08:11:45;57.15;;;24.73;;
62687;SDS011;48752;51.056;17.056;2022-11-20T08:14:29;54.17;;;22.73;;
62687;SDS011;48752;51.056;17.056;2022-11-20T08:16:54;58.55;;;22.02;;
62687;SDS011;48752;51.056;17.056;2022-11-20T08:19:21;52.42;;;23.38;;
62687;SDS011;48752;51.056;17.056;2022-11-20T08:21:47;57.65;;;23.30;;
62687;SDS011;48752;51.056;17.056;2022-11-20T08:24:12;56.22;;;23.00;;
62687;SDS011;48752;51.056;17.056;2022-11-20T08:26:38;59.50;;;22.77;;
62687;SDS011;48752;51.056;17.056;2022-11-20T08:29:06;53.83;;;22.80;;
62687;SDS011;48752;51.056;17.056;2022-11-20T08:31:34;45.70;;;19.92;;
62687;SDS011;48752;51.056;17.056;2022-11-20T08:34:00;47.33;;;22.10;;
62687;SDS011;48752;51.056;17.056;2022-11-20T08:36:25;46.83;;;21.95;;
62687;SDS011;48752;51.056;17.056;2022-11-20T08:38:52;47.17;;;19.77;;
62687;SDS011;48752;51.056;17.056;2022-11-20T08:41:19;45.55;;;20.27;;
62687;SDS011;48752;51.056;17.056;2022-11-20T08:43:50;46.30;;;21.33;;
62687;SDS011;48752;51.056;17.056;2022-11-20T08:46:24;43.63;;;19.48;;
62687;SDS011;48752;51.056;17.056;2022-11-20T08:48:51;44.78;;;19.33;;
62687;SDS011;48752;51.056;17.056;2022-11-20T08:51:16;43.17;;;19.73;;
62687;SDS011;48752;51.056;17.056;2022-11-20T08:53:43;47.00;;;21.75;;
62687;SDS011;48752;51.056;17.056;2022-11-20T08:56:17;41.63;;;19.50;;
62687;SDS011;48752;51.056;17.056;2022-11-20T08:58:43;40.60;;;18.80;;
62687;SDS011;48752;51.056;17.056;2022-11-20T09:01:10;40.15;;;17.98;;
62687;SDS011;48752;51.056;17.056;2022-11-20T09:03:35;42.75;;;17.95;;
62687;SDS011;48752;51.056;17.056;2022-11-20T09:06:01;32.28;;;17.58;;
62687;SDS011;48752;51.056;17.056;2022-11-20T09:08:29;32.03;;;15.70;;
62687;SDS011;48752;51.056;17.056;2022-11-20T09:10:57;41.42;;;18.30;;
62687;SDS011;48752;51.056;17.056;2022-11-20T09:13:25;38.13;;;18.05;;
62687;SDS011;48752;51.056;17.056;2022-11-20T09:16:00;38.25;;;18.02;;
62687;SDS011;48752;51.056;17.056;2022-11-20T09:18:31;43.97;;;19.20;;
62687;SDS011;48752;51.056;17.056;2022-11-20T09:21:01;37.03;;;17.88;;
62687;SDS011;48752;51.056;17.056;2022-11-20T09:23:30;35.88;;;16.90;;
62687;SDS011;48752;51.056;17.056;2022-11-20T09:26:01;46.08;;;19.17;;
62687;SDS011;48752;51.056;17.056;2022-11-20T09:28:32;39.78;;;17.73;;
62687;SDS011;48752;51.056;17.056;2022-11-20T09:31:08;41.85;;;17.98;;
62687;SDS011;48752;51.056;17.056;2022-11-20T09:33:36;35.53;;;16.75;;
62687;SDS011;48752;51.056;17.056;2022-11-20T09:36:02;40.45;;;18.38;;
62687;SDS011;48752;51.056;17.056;2022-11-20T09:38:28;36.72;;;17.25;;
62687;SDS011;48752;51.056;17.056;2022-11-20T09:41:05;40.88;;;17.17;;
62687;SDS011;48752;51.056;17.056;2022-11-20T09:46:30;36.78;;;18.10;;
62687;SDS011;48752;51.056;17.056;2022-11-20T09:52:17;41.65;;;16.75;;
62687;SDS011;48752;51.056;17.056;2022-11-20T09:54:51;40.28;;;17.00;;
62687;SDS011;48752;51.056;17.056;2022-11-20T09:57:18;41.30;;;18.92;;
62687;SDS011;48752;51.056;17.056;2022-11-20T09:59:51;41.17;;;17.60;;
62687;SDS011;48752;51.056;17.056;2022-11-20T10:05:15;39.00;;;17.98;;
62687;SDS011;48752;51.056;17.056;2022-11-20T10:07:44;39.72;;;18.13;;
62687;SDS011;48752;51.056;17.056;2022-11-20T10:10:18;35.80;;;17.02;;
62687;SDS011;48752;51.056;17.056;2022-11-20T10:15:21;33.58;;;15.50;;
62687;SDS011;48752;51.056;17.056;2022-11-20T10:18:09;37.35;;;16.05;;
62687;SDS011;48752;51.056;17.056;2022-11-20T10:26:34;35.70;;;15.63;;
62687;SDS011;48752;51.056;17.056;2022-11-20T10:29:21;35.38;;;16.50;;
62687;SDS011;48752;51.056;17.056;2022-11-20T10:31:55;36.05;;;15.98;;
62687;SDS011;48752;51.056;17.056;2022-11-20T10:36:52;29.40;;;14.65;;
62687;SDS011;48752;51.056;17.056;2022-11-20T10:41:52;30.75;;;13.68;;
62687;SDS011;48752;51.056;17.056;2022-11-20T10:44:22;35.08;;;14.13;;
62687;SDS011;48752;51.056;17.056;2022-11-20T10:47:15;34.50;;;14.85;;
62687;SDS011;48752;51.056;17.056;2022-11-20T10:49:43;33.10;;;13.55;;
62687;SDS011;48752;51.056;17.056;2022-11-20T11:00:32;34.08;;;15.45;;
62687;SDS011;48752;51.056;17.056;2022-11-20T11:02:58;32.50;;;15.52;;
62687;SDS011;48752;51.056;17.056;2022-11-20T11:05:33;34.97;;;15.35;;
62687;SDS011;48752;51.056;17.056;2022-11-20T11:08:02;29.95;;;14.95;;
62687;SDS011;48752;51.056;17.056;2022-11-20T11:10:38;32.40;;;14.82;;
62687;SDS011;48752;51.056;17.056;2022-11-20T11:13:07;36.88;;;16.30;;
62687;SDS011;48752;51.056;17.056;2022-11-20T11:15:37;36.25;;;15.93;;
62687;SDS011;48752;51.056;17.056;2022-11-20T11:18:04;29.15;;;16.08;;
62687;SDS011;48752;51.056;17.056;2022-11-20T11:20:29;34.92;;;15.57;;
62687;SDS011;48752;51.056;17.056;2022-11-20T11:22:56;32.10;;;14.80;;
62687;SDS011;48752;51.056;17.056;2022-11-20T11:25:32;28.23;;;13.07;;
62687;SDS011;48752;51.056;17.056;2022-11-20T11:28:00;29.25;;;14.35;;
62687;SDS011;48752;51.056;17.056;2022-11-20T11:30:30;27.75;;;14.38;;
62687;SDS011;48752;51.056;17.056;2022-11-20T11:33:09;25.90;;;13.80;;
62687;SDS011;48752;51.056;17.056;2022-11-20T11:36:19;27.48;;;12.48;;
62687;SDS011;48752;51.056;17.056;2022-11-20T11:38:37;25.83;;;12.20;;
62687;SDS011;48752;51.056;17.056;2022-11-20T11:41:05;30.13;;;12.02;;
62687;SDS011;48752;51.056;17.056;2022-11-20T11:43:32;32.72;;;13.88;;
62687;SDS011;48752;51.056;17.056;2022-11-20T11:49:08;21.88;;;11.90;;
62687;SDS011;48752;51.056;17.056;2022-11-20T11:51:47;28.58;;;12.98;;
62687;SDS011;48752;51.056;17.056;2022-11-20T11:55:03;24.10;;;12.07;;
62687;SDS011;48752;51.056;17.056;2022-11-20T11:57:26;26.15;;;12.63;;
62687;SDS011;48752;51.056;17.056;2022-11-20T12:05:17;24.83;;;12.48;;
62687;SDS011;48752;51.056;17.056;2022-11-20T12:10:42;26.30;;;12.85;;
62687;SDS011;48752;51.056;17.056;2022-11-20T12:16:13;25.25;;;11.30;;
62687;SDS011;48752;51.056;17.056;2022-11-20T12:18:40;22.25;;;11.18;;
62687;SDS011;48752;51.056;17.056;2022-11-20T12:26:27;25.45;;;12.82;;
62687;SDS011;48752;51.056;17.056;2022-11-20T12:40:46;25.23;;;12.75;;
62687;SDS011;48752;51.056;17.056;2022-11-20T12:43:25;24.38;;;12.23;;
62687;SDS011;48752;51.056;17.056;2022-11-20T12:54:49;20.80;;;9.85;;
62687;SDS011;48752;51.056;17.056;2022-11-20T13:00:25;26.55;;;12.38;;
62687;SDS011;48752;51.056;17.056;2022-11-20T13:08:38;26.60;;;10.68;;
62687;SDS011;48752;51.056;17.056;2022-11-20T13:13:43;19.45;;;9.18;;
62687;SDS011;48752;51.056;17.056;2022-11-20T13:16:22;18.92;;;9.15;;
62687;SDS011;48752;51.056;17.056;2022-11-20T13:18:57;20.40;;;9.85;;
62687;SDS011;48752;51.056;17.056;2022-11-20T13:21:36;17.77;;;8.25;;
62687;SDS011;48752;51.056;17.056;2022-11-20T13:24:06;16.48;;;8.70;;
62687;SDS011;48752;51.056;17.056;2022-11-20T13:26:44;16.88;;;8.55;;
62687;SDS011;48752;51.056;17.056;2022-11-20T13:29:18;18.98;;;8.82;;
62687;SDS011;48752;51.056;17.056;2022-11-20T13:31:45;17.55;;;9.73;;
62687;SDS011;48752;51.056;17.056;2022-11-20T13:34:12;16.10;;;8.55;;
62687;SDS011;48752;51.056;17.056;2022-11-20T13:36:50;18.42;;;9.13;;
62687;SDS011;48752;51.056;17.056;2022-11-20T13:41:57;20.17;;;9.95;;
62687;SDS011;48752;51.056;17.056;2022-11-20T13:44:36;21.48;;;10.65;;
62687;SDS011;48752;51.056;17.056;2022-11-20T13:47:03;20.58;;;10.43;;
62687;SDS011;48752;51.056;17.056;2022-11-20T13:49:41;22.25;;;10.23;;
62687;SDS011;48752;51.056;17.056;2022-11-20T13:55:28;21.83;;;10.77;;
62687;SDS011;48752;51.056;17.056;2022-11-20T14:01:20;22.60;;;10.05;;
62687;SDS011;48752;51.056;17.056;2022-11-20T14:03:48;24.38;;;10.70;;
62687;SDS011;48752;51.056;17.056;2022-11-20T14:07:00;22.65;;;10.60;;
62687;SDS011;48752;51.056;17.056;2022-11-20T14:09:27;24.23;;;10.82;;
62687;SDS011;48752;51.056;17.056;2022-11-20T14:11:59;21.92;;;11.32;;
62687;SDS011;48752;51.056;17.056;2022-11-20T14:14:26;18.30;;;10.00;;
62687;SDS011;48752;51.056;17.056;2022-11-20T14:17:04;25.10;;;11.52;;
62687;SDS011;48752;51.056;17.056;2022-11-20T14:19:31;27.92;;;12.00;;
62687;SDS011;48752;51.056;17.056;2022-11-20T14:22:08;31.42;;;12.07;;
62687;SDS011;48752;51.056;17.056;2022-11-20T14:24:39;21.08;;;11.45;;
62687;SDS011;48752;51.056;17.056;2022-11-20T14:27:09;23.80;;;11.32;;
62687;SDS011;48752;51.056;17.056;2022-11-20T14:29:38;26.40;;;10.75;;
62687;SDS011;48752;51.056;17.056;2022-11-20T14:32:04;25.45;;;11.63;;
62687;SDS011;48752;51.056;17.056;2022-11-20T14:34:32;29.35;;;13.05;;
62687;SDS011;48752;51.056;17.056;2022-11-20T14:37:03;26.05;;;12.18;;
62687;SDS011;48752;51.056;17.056;2022-11-20T14:39:34;28.40;;;13.05;;
62687;SDS011;48752;51.056;17.056;2022-11-20T14:42:00;25.58;;;13.63;;
62687;SDS011;48752;51.056;17.056;2022-11-20T14:44:27;29.27;;;13.30;;
62687;SDS011;48752;51.056;17.056;2022-11-20T14:46:55;33.20;;;14.25;;
62687;SDS011;48752;51.056;17.056;2022-11-20T14:49:22;36.85;;;14.15;;
62687;SDS011;48752;51.056;17.056;2022-11-20T14:51:57;35.05;;;14.25;;
62687;SDS011;48752;51.056;17.056;2022-11-20T14:54:34;31.77;;;13.93;;
62687;SDS011;48752;51.056;17.056;2022-11-20T15:00:05;27.35;;;13.00;;
62687;SDS011;48752;51.056;17.056;2022-11-20T15:02:53;32.58;;;14.65;;
62687;SDS011;48752;51.056;17.056;2022-11-20T15:05:21;28.13;;;13.60;;
62687;SDS011;48752;51.056;17.056;2022-11-20T15:07:49;32.25;;;14.23;;
62687;SDS011;48752;51.056;17.056;2022-11-20T15:15:27;31.13;;;13.77;;
62687;SDS011;48752;51.056;17.056;2022-11-20T15:17:56;28.90;;;12.80;;
62687;SDS011;48752;51.056;17.056;2022-11-20T15:20:24;31.90;;;14.85;;
62687;SDS011;48752;51.056;17.056;2022-11-20T15:22:54;28.27;;;13.93;;
62687;SDS011;48752;51.056;17.056;2022-11-20T15:25:20;32.80;;;15.18;;
62687;SDS011;48752;51.056;17.056;2022-11-20T15:27:45;38.85;;;15.75;;
62687;SDS011;48752;51.056;17.056;2022-11-20T15:30:22;30.58;;;14.80;;
62687;SDS011;48752;51.056;17.056;2022-11-20T15:32:50;40.13;;;16.75;;
62687;SDS011;48752;51.056;17.056;2022-11-20T15:35:16;31.52;;;14.50;;
62687;SDS011;48752;51.056;17.056;2022-11-20T15:37:43;36.70;;;16.45;;
62687;SDS011;48752;51.056;17.056;2022-11-20T15:40:13;37.97;;;14.93;;
62687;SDS011;48752;51.056;17.056;2022-11-20T15:42:38;35.67;;;16.35;;
62687;SDS011;48752;51.056;17.056;2022-11-20T15:45:24;38.00;;;18.25;;
62687;SDS011;48752;51.056;17.056;2022-11-20T15:47:52;40.72;;;18.58;;
62687;SDS011;48752;51.056;17.056;2022-11-20T15:50:19;48.88;;;20.40;;
62687;SDS011;48752;51.056;17.056;2022-11-20T15:52:59;43.50;;;18.90;;
62687;SDS011;48752;51.056;17.056;2022-11-20T15:55:25;45.17;;;20.23;;
62687;SDS011;48752;51.056;17.056;2022-11-20T15:57:51;46.45;;;20.35;;
62687;SDS011;48752;51.056;17.056;2022-11-20T16:00:16;41.90;;;18.67;;
62687;SDS011;48752;51.056;17.056;2022-11-20T16:02:42;42.95;;;19.55;;
62687;SDS011;48752;51.056;17.056;2022-11-20T16:05:11;46.15;;;19.88;;
62687;SDS011;48752;51.056;17.056;2022-11-20T16:07:37;47.38;;;20.20;;
62687;SDS011;48752;51.056;17.056;2022-11-20T16:10:03;43.70;;;19.90;;
62687;SDS011;48752;51.056;17.056;2022-11-20T16:12:28;44.80;;;20.42;;
62687;SDS011;48752;51.056;17.056;2022-11-20T16:15:12;46.38;;;20.30;;
62687;SDS011;48752;51.056;17.056;2022-11-20T16:18:14;37.35;;;19.20;;